• Join FlightAware (Why Join?)
  • Login
  • US Flag 
12:19PM EDT


 

Airport Tracker/Info


-or-


 

Live Flight TrackerFlight Track Log ✈ N612CT ✈ 13-Sep-2013 ✈ KAPF - KTLH

Flight Track Log - Related Links

Times and Time Zones

All times are in EDT time to prevent confusion due to time zone crossing. See the N612CT flight status page for this flight to view local times or setup timezone preferences in your user account.

Time Position Orientation Groundspeed Altitude Reporting Facility
EDT Latitude Longitude Course Direction KTS MPH feet Rate Location/Type
03:49PM 26.7708 -81.9378 332° Northwest 177 204 10,000  Level Miami Center
03:50PM 26.8189 -81.9397 358° North 177 204 10,000  Level Miami Center
03:51PM 26.8669 -81.9325 North 177 204 10,000  Level Miami Center
03:52PM 26.9172 -81.9300 North 177 204 10,000  Level Miami Center
03:53PM 26.9656 -81.9253 North 184 212 10,000  Level Miami Center
03:54PM 27.0468 -82.2993 332° Northwest  Level Estimated
03:54PM 27.0114 -81.9225 North 178 205 10,000  Level Miami Center
03:55PM 27.0594 -81.9222 360° North 178 205 10,000  Level Miami Center
03:56PM 27.1072 -81.9267 355° North 178 205 10,000  Level Miami Center
03:57PM 27.1572 -81.9311 355° North 178 205 10,000  Level Miami Center
03:58PM 27.2072 -81.9358 355° North 178 205 10,000  Level Miami Center
03:59PM 27.2553 -81.9333 North 178 205 10,000  Level Miami Center
04:01PM 27.2985 -81.9654 327° Northwest  Level Estimated
04:08PM 27.5252 -82.1342 327° Northwest  Level Estimated
04:09PM 27.5576 -82.1584 326° Northwest  Level Estimated
04:10PM 27.5900 -82.1826 326° Northwest  Level Estimated
04:11PM 27.6223 -82.2068 326° Northwest  Level Estimated
04:12PM 27.6547 -82.2310 326° Northwest  Level Estimated
04:13PM 27.6870 -82.2552 326° Northwest  Level Estimated
04:14PM 27.7194 -82.2795 326° Northwest  Level Estimated
04:15PM 27.7517 -82.3037 326° Northwest  Level Estimated
04:16PM 27.7841 -82.3280 326° Northwest  Level Estimated
04:17PM 27.8164 -82.3523 326° Northwest  Level Estimated
04:18PM 27.8487 -82.3766 326° Northwest  Level Estimated
04:19PM 27.8811 -82.4009 326° Northwest  Level Estimated
04:20PM 27.9134 -82.4253 326° Northwest  Level Estimated
04:21PM 27.9457 -82.4496 326° Northwest  Level Estimated
04:22PM 27.9780 -82.4740 326° Northwest  Level Estimated
04:23PM 28.0103 -82.4984 326° Northwest  Level Estimated
04:24PM 28.0427 -82.5227 326° Northwest  Level Estimated
04:25PM 28.0750 -82.5471 326° Northwest  Level Estimated
04:26PM 28.1073 -82.5716 326° Northwest  Level Estimated
04:27PM 28.1396 -82.5960 326° Northwest  Level Estimated
04:28PM 28.1719 -82.6205 326° Northwest  Level Estimated
04:29PM 28.2041 -82.6449 326° Northwest  Level Estimated
04:30PM 28.2364 -82.6694 326° Northwest  Level Estimated
04:31PM 28.2687 -82.6939 326° Northwest  Level Estimated
04:32PM 28.3010 -82.7184 326° Northwest  Level Estimated
04:33PM 28.3332 -82.7429 326° Northwest  Level Estimated
04:34PM 28.3655 -82.7675 326° Northwest  Level Estimated
04:35PM 28.3978 -82.7920 326° Northwest  Level Estimated
04:36PM 28.4300 -82.8166 326° Northwest  Level Estimated
04:37PM 28.4623 -82.8412 326° Northwest  Level Estimated
04:38PM 28.4945 -82.8658 326° Northwest  Level Estimated
04:39PM 28.5268 -82.8904 326° Northwest  Level Estimated
04:40PM 28.5590 -82.9150 326° Northwest  Level Estimated
04:41PM 28.5912 -82.9396 326° Northwest  Level Estimated
04:42PM 28.6235 -82.9643 326° Northwest  Level Estimated
04:43PM 28.6557 -82.9890 326° Northwest  Level Estimated
04:44PM 28.6879 -83.0137 326° Northwest  Level Estimated
04:45PM 28.7201 -83.0384 326° Northwest  Level Estimated
04:46PM 28.7523 -83.0631 326° Northwest  Level Estimated
04:47PM 28.7846 -83.0878 326° Northwest  Level Estimated
04:48PM 28.8168 -83.1126 326° Northwest  Level Estimated
04:49PM 28.8490 -83.1373 326° Northwest  Level Estimated
04:50PM 28.8811 -83.1621 326° Northwest  Level Estimated
04:51PM 28.9133 -83.1869 326° Northwest  Level Estimated
04:52PM 28.9455 -83.2117 326° Northwest  Level Estimated
04:53PM 28.9777 -83.2366 326° Northwest  Level Estimated
04:54PM 29.0099 -83.2614 326° Northwest  Level Estimated
04:55PM 29.0420 -83.2863 326° Northwest  Level Estimated
04:56PM 29.0742 -83.3111 326° Northwest  Level Estimated
04:57PM 29.1064 -83.3360 326° Northwest  Level Estimated
04:58PM 29.1385 -83.3609 326° Northwest  Level Estimated
04:59PM 29.1707 -83.3858 326° Northwest  Level Estimated
05:00PM 29.2028 -83.4108 326° Northwest  Level Estimated
05:01PM 29.2350 -83.4357 326° Northwest  Level Estimated
05:02PM 29.2671 -83.4607 326° Northwest  Level Estimated
05:03PM 29.2992 -83.4857 326° Northwest  Level Estimated
05:04PM 29.3314 -83.5107 326° Northwest  Level Estimated
05:05PM 29.3635 -83.5357 326° Northwest  Level Estimated
05:06PM 29.3956 -83.5607 326° Northwest  Level Estimated
05:07PM 29.4277 -83.5858 326° Northwest  Level Estimated
05:08PM 29.4599 -83.6108 326° Northwest  Level Estimated
05:09PM 29.4920 -83.6359 326° Northwest  Level Estimated
05:10PM 29.5241 -83.6610 326° Northwest  Level Estimated
05:11PM 29.5562 -83.6861 326° Northwest  Level Estimated
05:12PM 29.5883 -83.7113 326° Northwest  Level Estimated
05:13PM 29.6203 -83.7364 326° Northwest  Level Estimated
05:14PM 29.6524 -83.7616 326° Northwest  Level Estimated
05:15PM 29.6845 -83.7867 326° Northwest  Level Estimated
05:16PM 29.7166 -83.8119 326° Northwest  Level Estimated
05:17PM 29.7486 -83.8371 326° Northwest  Level Estimated
05:18PM 29.7807 -83.8623 326° Northwest  Level Estimated
05:19PM 29.8128 -83.8876 326° Northwest  Level Estimated
05:20PM 29.8448 -83.9128 326° Northwest  Level Estimated
05:21PM 29.8769 -83.9381 326° Northwest  Level Estimated
05:22PM 29.9089 -83.9634 326° Northwest  Level Estimated
05:23PM 29.9410 -83.9887 326° Northwest  Level Estimated
05:24PM 29.9730 -84.0140 326° Northwest  Level Estimated
05:25PM 30.0050 -84.0394 326° Northwest  Level Estimated
05:26PM 30.0370 -84.0647 326° Northwest  Level Estimated
05:27PM 30.0691 -84.0901 326° Northwest  Level Estimated
05:28PM 30.1011 -84.1154 326° Northwest  Level Estimated
05:29PM 30.1331 -84.1408 326° Northwest  Level Estimated
05:30PM 30.1651 -84.1663 326° Northwest  Level Estimated
05:31PM 30.1971 -84.1917 326° Northwest  Level Estimated
05:32PM 30.2291 -84.2172 326° Northwest  Level Estimated
05:33PM 30.2611 -84.2426 325° Northwest  Level Estimated
05:34PM 30.2931 -84.2681 325° Northwest  Level Estimated
05:35PM 30.3251 -84.2936 325° Northwest  Level Estimated
05:36PM 30.3570 -84.3191 325° Northwest  Level Estimated
05:37PM 30.3890 -84.3447 325° Northwest  Level Estimated
05:38PM 30.3967 -84.3509 325° Northwest  Level Estimated
05:39PM 30.3967 -84.3509 270° West  Level Estimated
05:40PM 30.3967 -84.3509 270° West  Level Estimated
05:41PM 30.3967 -84.3509 270° West  Level Estimated
05:42PM 30.3967 -84.3509 270° West  Level Estimated
05:43PM 30.3967 -84.3509 270° West  Level Estimated
05:44PM 30.3967 -84.3509 270° West  Level Estimated
05:45PM 30.3967 -84.3509 270° West  Level Estimated
05:46PM 30.3967 -84.3509 270° West  Level Estimated
05:47PM 30.3967 -84.3509 270° West  Level Estimated
05:48PM 30.3967 -84.3509 270° West  Level Estimated